Time;durP1;ratioP1;P1;durP2;ratioP2;P2;SDS_P1;SDS_P2;PMS_P1;PMS_P2;Temp;Humidity;BMP_temperature;BMP_pressure;BME280_temperature;BME280_humidity;BME280_pressure;Samples;Min_cycle;Max_cycle;Signal;HPM_P1;HPM_P2
2022/06/16 00:01:40;;;;;;;18.50;7.63;;;;;;;18.32;62.89;95570.78;6213103;23;20418;-83
2022/06/16 00:04:06;;;;;;;12.63;6.72;;;;;;;18.97;63.01;95668.59;6212314;23;20066;-83
2022/06/16 00:06:32;;;;;;;17.45;8.20;;;;;;;18.31;62.72;95568.41;6209516;23;20001;-82
2022/06/16 00:08:58;;;;;;;21.70;7.63;;;;;;;18.89;62.61;95662.09;6210225;23;20012;-83
2022/06/16 00:11:23;;;;;;;17.92;7.97;;;;;;;18.61;63.02;95612.44;6212576;23;20005;-83
2022/06/16 00:13:51;;;;;;;17.15;7.75;;;;;;;19.04;62.89;95669.69;6213653;23;20008;-83
2022/06/16 00:16:18;;;;;;;15.07;7.63;;;;;;;19.02;62.88;95677.28;6219236;23;20008;-84
2022/06/16 00:18:44;;;;;;;13.18;7.22;;;;;;;18.89;63.17;95670.16;6217358;23;20008;-83
2022/06/16 00:21:10;;;;;;;13.43;7.60;;;;;;;18.70;62.17;95629.31;6211224;23;20359;-83
2022/06/16 00:23:36;;;;;;;11.73;6.50;;;;;;;19.02;62.06;95676.50;6211514;23;20012;-84
2022/06/16 00:26:02;;;;;;;20.25;7.50;;;;;;;18.88;62.44;95679.31;6212967;23;20086;-83
2022/06/16 00:28:28;;;;;;;21.95;7.60;;;;;;;18.37;62.51;95597.50;6212015;23;20469;-84
2022/06/16 00:31:04;;;;;;;15.15;7.88;;;;;;;18.70;62.82;95632.81;6212795;23;20032;-83
2022/06/16 00:33:29;;;;;;;16.10;7.85;;;;;;;18.41;62.64;95578.84;6209632;23;20024;-83
2022/06/16 00:35:55;;;;;;;12.10;7.15;;;;;;;18.71;62.24;95629.03;6210347;23;20439;-83
2022/06/16 00:38:20;;;;;;;20.67;7.13;;;;;;;18.17;62.40;95598.03;6210541;23;20016;-83
2022/06/16 00:40:46;;;;;;;12.55;6.47;;;;;;;18.48;63.10;95632.88;6211986;23;20011;-84
2022/06/16 00:43:12;;;;;;;16.45;7.10;;;;;;;18.60;62.77;95643.06;6210605;23;20428;-84
2022/06/16 00:45:45;;;;;;;20.40;7.22;;;;;;;18.42;62.63;95615.34;6209609;23;20442;-84
2022/06/16 00:48:16;;;;;;;14.93;7.40;;;;;;;18.72;63.13;95676.28;6209493;23;20009;-84
2022/06/16 00:50:43;;;;;;;12.27;6.70;;;;;;;17.54;63.15;95494.59;6210876;23;20043;-83
2022/06/16 00:53:08;;;;;;;16.83;7.65;;;;;;;18.49;62.97;95629.91;6209125;23;20111;-83
2022/06/16 00:55:34;;;;;;;18.48;8.02;;;;;;;18.44;63.10;95640.00;6209272;23;20044;-84
2022/06/16 00:58:01;;;;;;;13.65;7.03;;;;;;;18.60;63.50;95670.72;6209218;23;20051;-83
2022/06/16 01:02:55;;;;;;;12.50;6.97;;;;;;;18.03;62.88;95573.22;6212036;23;20095;-84
2022/06/16 01:05:23;;;;;;;13.43;7.43;;;;;;;17.96;63.57;95579.03;6208904;23;20114;-84
2022/06/16 01:07:49;;;;;;;17.05;7.50;;;;;;;17.71;63.73;95539.47;6209555;23;20509;-84
2022/06/16 01:10:16;;;;;;;11.63;7.40;;;;;;;18.15;63.45;95608.31;6212704;23;20008;-84
2022/06/16 01:16:04;;;;;;;15.65;7.40;;;;;;;18.57;63.06;95663.28;6211464;23;20040;-84
2022/06/16 01:18:32;;;;;;;13.35;6.78;;;;;;;18.39;63.19;95651.66;6209738;23;20016;-83
2022/06/16 01:21:03;;;;;;;9.40;7.13;;;;;;;18.47;63.20;95661.63;6211934;23;20075;-83
2022/06/16 01:23:44;;;;;;;14.23;6.60;;;;;;;18.47;63.61;95663.53;6209784;23;20008;-83
2022/06/16 01:26:46;;;;;;;12.27;7.50;;;;;;;18.24;64.30;95665.50;6210751;23;20018;-83
2022/06/16 01:29:40;;;;;;;14.55;7.05;;;;;;;18.30;64.13;95658.91;6209973;23;20236;-84
2022/06/16 01:32:42;;;;;;;15.05;6.55;;;;;;;18.23;64.20;95657.78;6211823;23;20099;-84
2022/06/16 01:35:14;;;;;;;10.95;6.88;;;;;;;18.17;64.45;95651.72;6209443;23;20099;-83
2022/06/16 01:37:47;;;;;;;;;;;;;;;18.16;64.70;95646.69;6214287;23;20038;-84
2022/06/16 01:40:28;;;;;;;18.55;7.22;;;;;;;18.16;64.80;95654.75;6220367;23;19964;-83
2022/06/16 01:43:02;;;;;;;13.45;6.82;;;;;;;17.82;64.57;95589.09;6216307;23;20015;-85
2022/06/16 01:45:37;;;;;;;13.48;6.80;;;;;;;18.24;64.25;95645.91;6211337;23;20032;-84
2022/06/16 01:48:08;;;;;;;19.42;7.07;;;;;;;17.21;65.38;95552.28;6211247;23;20075;-83
2022/06/16 01:50:40;;;;;;;11.60;7.65;;;;;;;16.98;65.04;95500.59;6212611;23;20031;-84
2022/06/16 01:53:11;;;;;;;20.40;7.80;;;;;;;17.80;65.76;95647.63;6208903;23;20015;-83
2022/06/16 01:55:44;;;;;;;14.45;7.72;;;;;;;17.88;65.59;95638.81;6210088;23;20008;-84
2022/06/16 01:58:27;;;;;;;11.27;7.82;;;;;;;17.42;64.99;95558.72;6209083;23;20481;-83
2022/06/16 02:00:55;;;;;;;11.18;7.50;;;;;;;17.48;65.65;95588.84;6209443;23;20005;-83
2022/06/16 02:03:27;;;;;;;15.48;7.75;;;;;;;17.30;65.38;95561.97;6211122;23;20431;-83
2022/06/16 02:05:58;;;;;;;;;;;;;;;17.81;65.22;95637.69;6209499;23;20052;-83
2022/06/16 02:08:32;;;;;;;27.27;7.93;;;;;;;17.67;65.19;95632.41;6209684;23;20340;-83
2022/06/16 02:11:05;;;;;;;15.57;8.43;;;;;;;17.57;65.16;95611.94;6209152;23;20014;-83
2022/06/16 02:13:43;;;;;;;12.02;8.02;;;;;;;17.77;65.31;95639.41;6211352;23;20052;-83
2022/06/16 02:16:31;;;;;;;11.38;7.70;;;;;;;17.78;65.47;95646.31;6210391;23;20009;-83
2022/06/16 02:18:59;;;;;;;15.95;8.45;;;;;;;17.34;65.33;95594.28;6211016;23;20530;-83
2022/06/16 02:21:37;;;;;;;16.20;8.60;;;;;;;17.58;64.97;95624.25;6209981;23;20359;-83
2022/06/16 02:24:04;;;;;;;12.52;7.63;;;;;;;16.85;65.24;95539.75;6212660;23;20008;-83
2022/06/16 02:26:31;;;;;;;11.50;7.82;;;;;;;17.74;65.09;95656.91;6214792;23;20009;-83
2022/06/16 02:28:59;;;;;;;18.35;8.60;;;;;;;17.42;64.85;95592.78;6209715;23;20498;-83
2022/06/16 02:32:02;;;;;;;19.90;7.90;;;;;;;17.46;64.84;95607.97;6210088;23;20028;-83
2022/06/16 02:34:55;;;;;;;14.70;7.25;;;;;;;17.81;65.00;95657.25;6209594;23;20455;-84
2022/06/16 02:37:39;;;;;;;15.85;7.63;;;;;;;17.79;65.52;95655.97;6212230;23;20020;-83
2022/06/16 02:40:16;;;;;;;15.85;8.05;;;;;;;17.86;64.40;95648.25;6212051;23;20430;-84
2022/06/16 02:42:49;;;;;;;19.35;8.50;;;;;;;17.32;64.44;95594.59;6209879;23;20043;-83
2022/06/16 02:45:30;;;;;;;18.75;7.75;;;;;;;17.71;64.77;95666.34;6209221;23;20506;-83
2022/06/16 02:48:05;;;;;;;14.98;8.00;;;;;;;17.63;64.35;95650.19;6210601;23;20090;-83
2022/06/16 02:50:39;;;;;;;16.63;7.18;;;;;;;17.66;64.71;95665.69;6211250;23;20015;-83
2022/06/16 02:53:46;;;;;;;15.73;7.78;;;;;;;17.09;64.83;95576.94;6208927;23;20020;-84
2022/06/16 02:56:39;;;;;;;19.65;7.32;;;;;;;17.65;64.49;95670.25;6192861;23;20008;-84
2022/06/16 02:59:17;;;;;;;16.60;7.30;;;;;;;17.65;64.39;95669.44;6212505;23;20344;-84
2022/06/16 03:01:43;;;;;;;12.20;7.40;;;;;;;17.37;64.65;95644.63;6211288;23;20012;-84
2022/06/16 03:04:13;;;;;;;20.17;7.95;;;;;;;17.53;64.00;95626.28;6210288;23;20055;-84
2022/06/16 03:06:38;;;;;;;11.73;7.70;;;;;;;17.72;63.78;95659.88;6212288;23;20043;-83
2022/06/16 03:09:04;;;;;;;13.60;7.47;;;;;;;17.59;63.63;95633.91;6209857;23;20011;-84
2022/06/16 03:11:31;;;;;;;11.10;7.50;;;;;;;17.95;63.33;95670.56;6212484;23;20445;-84
2022/06/16 03:13:57;;;;;;;16.42;7.75;;;;;;;17.87;63.36;95665.94;6212574;23;20355;-84
2022/06/16 03:16:23;;;;;;;14.48;7.43;;;;;;;17.52;63.55;95590.63;6210454;23;20015;-83
2022/06/16 03:18:49;;;;;;;12.38;7.43;;;;;;;17.95;63.18;95646.41;6212316;23;20015;-83
2022/06/16 03:21:15;;;;;;;11.18;7.40;;;;;;;18.09;63.38;95685.50;6213055;23;20063;-83
2022/06/16 03:23:40;;;;;;;11.82;7.05;;;;;;;17.51;63.19;95564.13;6210326;23;20009;-83
2022/06/16 03:26:06;;;;;;;15.07;7.47;;;;;;;17.97;63.55;95641.56;6212573;23;20060;-84
2022/06/16 03:28:32;;;;;;;12.65;7.30;;;;;;;17.47;63.48;95549.75;6210248;23;20012;-84
2022/06/16 03:30:57;;;;;;;16.98;7.90;;;;;;;18.05;64.41;95671.13;6212586;23;20016;-83
2022/06/16 03:33:23;;;;;;;15.30;6.85;;;;;;;17.97;63.95;95645.03;6211444;23;20297;-83
2022/06/16 03:35:48;;;;;;;14.65;7.30;;;;;;;18.03;64.45;95632.25;6211220;23;20013;-83
2022/06/16 03:38:20;;;;;;;21.00;7.38;;;;;;;17.64;63.69;95574.78;6213195;23;20008;-84
2022/06/16 03:40:46;;;;;;;15.93;8.00;;;;;;;18.41;63.44;95681.69;6211897;23;20363;-83
2022/06/16 03:43:11;;;;;;;19.95;7.50;;;;;;;17.96;62.95;95597.03;6209935;23;20024;-83
2022/06/16 03:45:37;;;;;;;16.08;8.32;;;;;;;17.95;62.92;95624.97;6210149;23;20092;-83
2022/06/16 03:48:04;;;;;;;12.30;8.50;;;;;;;17.67;63.16;95560.78;6210123;23;20008;-84
2022/06/16 03:50:29;;;;;;;12.38;8.30;;;;;;;18.36;62.90;95664.94;6210254;23;20015;-82
2022/06/16 03:52:55;;;;;;;20.30;9.13;;;;;;;18.09;63.45;95625.66;6210944;23;20095;-82
2022/06/16 03:55:21;;;;;;;13.15;8.40;;;;;;;18.01;63.33;95586.16;6209549;23;20009;-82
2022/06/16 03:57:46;;;;;;;14.93;8.75;;;;;;;18.11;63.02;95601.97;6212428;23;20367;-83
2022/06/16 04:00:13;;;;;;;19.67;8.77;;;;;;;18.11;62.69;95599.28;6209461;23;20411;-83
2022/06/16 04:02:39;;;;;;;19.17;8.15;;;;;;;18.60;62.18;95669.94;6209450;23;20394;-82
2022/06/16 04:05:07;;;;;;;15.55;8.48;;;;;;;18.48;62.53;95667.81;6209398;23;20028;-82
2022/06/16 04:07:35;;;;;;;16.30;9.05;;;;;;;17.93;62.88;95609.16;6200879;23;20231;-83
2022/06/16 04:10:01;;;;;;;15.32;8.27;;;;;;;17.89;63.29;95594.00;6206905;23;20019;-83
2022/06/16 04:12:27;;;;;;;16.35;8.73;;;;;;;17.48;62.55;95509.22;6208304;23;20155;-82
2022/06/16 04:14:52;;;;;;;20.88;8.65;;;;;;;18.13;62.28;95597.09;6207571;23;20012;-82
2022/06/16 04:17:18;;;;;;;18.67;9.63;;;;;;;18.69;62.01;95671.53;6206866;23;20016;-82
2022/06/16 04:22:27;;;;;;;17.65;8.88;;;;;;;18.56;61.70;95639.38;6210027;23;20023;-83
2022/06/16 04:24:53;;;;;;;13.93;8.95;;;;;;;18.41;61.40;95617.22;6208842;23;20432;-83
2022/06/16 04:27:18;;;;;;;17.42;8.45;;;;;;;18.81;61.40;95673.63;6208080;23;20008;-83
2022/06/16 04:29:44;;;;;;;17.55;9.07;;;;;;;18.51;61.33;95618.84;6210061;23;20075;-83
2022/06/16 04:32:10;;;;;;;30.30;9.35;;;;;;;18.29;61.18;95576.00;6209044;23;20428;-82
2022/06/16 04:34:36;;;;;;;19.30;10.02;;;;;;;18.36;61.29;95585.16;6211452;23;20020;-82
2022/06/16 04:37:01;;;;;;;23.27;10.00;;;;;;;18.69;61.41;95635.84;6208928;23;20087;-83
2022/06/16 04:39:27;;;;;;;14.85;9.88;;;;;;;18.97;61.10;95666.69;6208672;23;20134;-83
2022/06/16 04:41:52;;;;;;;18.77;9.82;;;;;;;18.93;61.28;95664.94;6208506;23;20019;-82
2022/06/16 04:44:17;;;;;;;22.70;10.35;;;;;;;18.22;61.50;95565.72;6207443;23;20039;-83
2022/06/16 04:46:43;;;;;;;21.73;10.90;;;;;;;18.05;61.68;95558.41;6209287;23;20015;-83
2022/06/16 04:49:09;;;;;;;34.67;10.73;;;;;;;18.34;61.55;95584.69;6207919;23;20020;-83
2022/06/16 04:51:35;;;;;;;18.85;11.00;;;;;;;18.11;62.98;95626.13;6206881;23;20012;-83
2022/06/16 04:54:01;;;;;;;26.40;11.63;;;;;;;18.57;62.76;95671.34;6209626;23;20016;-82
2022/06/16 04:56:26;;;;;;;32.65;10.60;;;;;;;17.77;62.70;95573.13;6206015;23;20052;-83
2022/06/16 04:58:53;;;;;;;17.95;9.77;;;;;;;18.36;62.59;95676.47;6207354;23;20063;-83
2022/06/16 05:01:18;;;;;;;20.92;10.43;;;;;;;18.17;61.63;95632.16;6203732;23;20091;-82
2022/06/16 05:03:43;;;;;;;22.08;10.07;;;;;;;18.28;61.99;95644.22;6205922;23;20099;-83
2022/06/16 05:06:09;;;;;;;17.00;10.05;;;;;;;18.13;61.36;95615.88;6205318;23;20039;-82
2022/06/16 05:08:34;;;;;;;23.27;11.15;;;;;;;18.47;61.84;95666.22;6203695;23;20013;-83
2022/06/16 05:11:00;;;;;;;22.95;10.57;;;;;;;18.23;61.66;95629.03;6202790;23;20044;-82
2022/06/16 05:13:25;;;;;;;17.33;10.43;;;;;;;18.54;62.08;95665.78;6205438;23;20033;-84
2022/06/16 05:15:55;;;;;;;31.55;11.77;;;;;;;18.63;62.15;95675.47;6230694;23;20015;-83
2022/06/16 05:18:20;;;;;;;28.38;11.18;;;;;;;18.49;62.14;95670.19;6203694;23;20001;-83
2022/06/16 05:20:45;;;;;;;21.92;10.98;;;;;;;18.52;62.18;95666.09;6207399;23;20074;-82
2022/06/16 05:23:12;;;;;;;30.95;11.02;;;;;;;17.54;63.38;95584.97;6205724;23;20099;-82
2022/06/16 05:25:39;;;;;;;26.80;11.02;;;;;;;17.59;62.35;95564.16;6205897;23;20008;-81
2022/06/16 05:28:06;;;;;;;16.98;10.88;;;;;;;17.76;62.94;95587.63;6209836;23;20078;-83
2022/06/16 05:30:32;;;;;;;27.48;11.68;;;;;;;18.02;63.13;95631.47;6205301;23;20008;-83
2022/06/16 05:32:57;;;;;;;28.13;11.90;;;;;;;18.16;62.69;95644.78;6203457;23;20090;-82
2022/06/16 05:35:23;;;;;;;18.70;12.68;;;;;;;17.57;63.92;95593.19;6204638;23;20005;-81
2022/06/16 05:37:48;;;;;;;26.80;12.95;;;;;;;18.19;63.28;95638.00;6204966;23;20008;-82
2022/06/16 05:40:14;;;;;;;21.73;11.52;;;;;;;18.21;63.49;95651.91;6204696;23;20012;-82
2022/06/16 05:42:39;;;;;;;19.73;12.30;;;;;;;17.93;63.58;95619.09;6203625;23;20086;-81
2022/06/16 05:45:06;;;;;;;26.67;11.50;;;;;;;18.51;63.30;95684.09;6203275;23;20009;-82
2022/06/16 05:47:31;;;;;;;27.98;13.38;;;;;;;18.31;63.27;95648.97;6207076;23;20005;-82
2022/06/16 05:49:58;;;;;;;28.70;13.13;;;;;;;18.69;63.13;95684.94;6207262;23;20509;-82
2022/06/16 05:52:23;;;;;;;29.48;13.15;;;;;;;18.76;63.21;95681.84;6208521;23;20257;-82
2022/06/16 05:54:49;;;;;;;27.90;13.32;;;;;;;18.31;62.70;95595.28;6206121;23;20302;-82
2022/06/16 05:57:15;;;;;;;22.88;13.25;;;;;;;19.04;62.57;95685.03;6203441;23;20023;-82
2022/06/16 05:59:41;;;;;;;26.20;13.45;;;;;;;18.73;62.02;95609.91;6208194;23;20040;-82
2022/06/16 06:02:19;;;;;;;33.35;15.48;;;;;;;19.27;62.43;95676.53;6208208;23;20032;-82
2022/06/16 06:04:47;;;;;;;25.55;13.65;;;;;;;19.27;63.48;95692.66;6207399;23;20008;-83
2022/06/16 06:07:12;;;;;;;23.88;15.32;;;;;;;19.35;63.83;95682.22;6207914;23;20423;-83
2022/06/16 06:18:12;;;;;;;25.05;15.63;;;;;;;19.42;64.27;95663.69;6155178;23;20019;-82
2022/06/16 06:20:38;;;;;;;28.42;15.30;;;;;;;19.22;63.98;95612.13;6210428;23;20178;-82
2022/06/16 06:23:03;;;;;;;30.63;14.63;;;;;;;19.23;63.67;95605.66;6209314;23;20005;-83
2022/06/16 06:25:29;;;;;;;26.67;16.88;;;;;;;19.79;64.13;95675.72;6207617;23;20675;-84
2022/06/16 06:27:54;;;;;;;25.55;15.95;;;;;;;19.48;63.95;95625.59;6208532;23;20016;-83
2022/06/16 06:30:24;;;;;;;28.40;15.40;;;;;;;19.57;64.37;95650.59;6208491;23;20092;-82
2022/06/16 06:32:50;;;;;;;27.45;17.23;;;;;;;19.17;65.39;95616.88;6207518;23;20223;-83
2022/06/16 06:35:16;;;;;;;25.73;17.85;;;;;;;19.04;66.78;95590.97;6206385;23;20027;-82
2022/06/16 06:37:42;;;;;;;27.75;17.55;;;;;;;19.41;65.28;95624.47;6208970;23;20095;-84
2022/06/16 06:40:31;;;;;;;27.15;18.70;;;;;;;18.98;65.63;95558.09;6211505;23;20020;-83
2022/06/16 06:42:57;;;;;;;29.27;17.20;;;;;;;19.51;65.31;95613.41;6210310;23;20376;-83
2022/06/16 06:45:22;;;;;;;27.98;16.42;;;;;;;19.80;66.00;95664.63;6210229;23;20024;-82
2022/06/16 06:47:48;;;;;;;34.72;19.27;;;;;;;20.01;66.48;95681.69;6211444;23;20024;-83
2022/06/16 06:50:26;;;;;;;25.05;18.00;;;;;;;19.02;67.30;95523.28;6208846;23;20523;-83
2022/06/16 06:52:52;;;;;;;32.88;19.38;;;;;;;20.19;66.12;95681.63;6209534;23;20852;-83
2022/06/16 06:55:18;;;;;;;32.88;19.17;;;;;;;20.31;65.65;95671.75;6210720;23;20428;-83
2022/06/16 06:57:45;;;;;;;43.50;20.75;;;;;;;20.34;66.28;95679.25;6209797;23;20452;-83
2022/06/16 07:00:14;;;;;;;36.88;20.33;;;;;;;20.32;65.63;95645.63;6208974;23;20505;-83
2022/06/16 07:02:39;;;;;;;38.83;21.02;;;;;;;20.61;65.01;95669.91;6210202;23;20015;-83
2022/06/16 07:05:05;;;;;;;38.40;19.27;;;;;;;20.62;64.03;95671.50;6208574;23;20040;-83
2022/06/16 07:07:33;;;;;;;41.58;20.63;;;;;;;20.49;64.93;95677.91;6208818;23;20012;-83
2022/06/16 07:09:58;;;;;;;44.38;21.75;;;;;;;19.90;64.75;95588.94;6211734;23;20043;-83
2022/06/16 07:12:24;;;;;;;35.72;22.15;;;;;;;20.02;64.58;95583.66;6211349;23;20005;-83
2022/06/16 07:14:50;;;;;;;34.00;23.17;;;;;;;20.66;65.65;95663.56;6211390;23;20404;-83
2022/06/16 07:17:19;;;;;;;27.20;20.10;;;;;;;20.75;63.98;95667.78;6208443;23;20008;-82
2022/06/16 07:19:44;;;;;;;39.95;22.38;;;;;;;20.39;64.15;95610.91;6210945;23;20008;-83
2022/06/16 07:22:10;;;;;;;35.28;22.60;;;;;;;20.80;64.26;95664.13;6207932;23;20013;-83
2022/06/16 07:24:36;;;;;;;31.73;23.00;;;;;;;20.61;63.47;95626.78;6208450;23;20393;-82
2022/06/16 07:27:03;;;;;;;37.83;24.60;;;;;;;20.93;62.92;95660.38;6209607;23;20008;-83
2022/06/16 07:29:29;;;;;;;34.50;23.85;;;;;;;21.03;62.81;95664.59;6211235;23;20012;-83
2022/06/16 07:31:55;;;;;;;40.13;24.77;;;;;;;20.45;61.67;95576.50;6209533;23;20005;-83
2022/06/16 07:34:20;;;;;;;39.15;24.77;;;;;;;20.58;63.25;95592.44;6209066;23;20016;-82
2022/06/16 07:36:46;;;;;;;35.72;24.02;;;;;;;20.37;62.57;95567.34;6207897;23;20363;-83
2022/06/16 07:39:11;;;;;;;32.28;22.90;;;;;;;20.80;60.73;95608.31;6211131;23;20419;-82
2022/06/16 07:41:37;;;;;;;33.45;23.13;;;;;;;21.04;60.45;95604.97;6208561;23;20063;-82
2022/06/16 07:44:05;;;;;;;35.63;22.48;;;;;;;21.54;59.80;95658.81;6209086;23;20059;-83
2022/06/16 07:46:31;;;;;;;32.03;23.45;;;;;;;21.51;59.16;95637.88;6209633;23;20012;-84
2022/06/16 07:48:57;;;;;;;41.10;22.48;;;;;;;21.65;59.09;95651.13;6209910;23;20347;-83
2022/06/16 07:51:23;;;;;;;36.10;23.83;;;;;;;21.50;59.54;95651.75;6207642;23;20008;-83
2022/06/16 07:53:49;;;;;;;38.08;23.40;;;;;;;21.04;59.03;95583.38;6208386;23;20020;-83
2022/06/16 07:56:15;;;;;;;38.67;24.77;;;;;;;21.16;58.95;95590.72;6210017;23;20012;-82
2022/06/16 07:58:43;;;;;;;32.83;21.00;;;;;;;21.87;58.14;95655.34;6208142;23;20310;-83
2022/06/16 08:01:08;;;;;;;32.28;23.95;;;;;;;21.86;58.42;95624.84;6209712;23;20062;-83
2022/06/16 08:03:34;;;;;;;34.40;21.17;;;;;;;21.59;57.38;95576.09;6211837;23;20032;-83
2022/06/16 08:06:04;;;;;;;33.20;22.08;;;;;;;21.93;57.05;95622.41;6208892;23;20020;-85
2022/06/16 08:08:30;;;;;;;27.90;21.30;;;;;;;21.20;57.89;95513.47;6212618;23;20008;-84
2022/06/16 08:10:55;;;;;;;30.63;21.90;;;;;;;22.06;58.23;95603.53;6211612;23;20013;-84
2022/06/16 08:13:23;;;;;;;28.17;20.95;;;;;;;22.56;56.44;95652.66;6208277;23;20054;-83
2022/06/16 08:15:50;;;;;;;26.95;19.58;;;;;;;22.40;55.19;95637.44;6207808;23;20013;-83
2022/06/16 08:18:19;;;;;;;28.42;20.75;;;;;;;22.60;54.95;95653.56;6210986;23;20008;-84
2022/06/16 08:20:45;;;;;;;30.55;20.55;;;;;;;22.25;53.53;95620.78;6207302;23;20380;-83
2022/06/16 08:23:11;;;;;;;26.13;19.85;;;;;;;22.29;53.39;95629.00;6210124;23;20035;-83
2022/06/16 08:25:38;;;;;;;31.38;21.70;;;;;;;21.98;53.16;95548.50;6209668;23;20012;-84
2022/06/16 08:28:04;;;;;;;27.20;20.08;;;;;;;22.43;54.36;95585.44;6210050;23;20416;-84
2022/06/16 08:30:31;;;;;;;28.63;19.25;;;;;;;23.02;53.94;95666.84;6210151;23;20083;-83
2022/06/16 08:32:58;;;;;;;27.52;18.55;;;;;;;23.06;53.23;95667.75;6209387;23;20541;-83
2022/06/16 08:35:23;;;;;;;29.35;20.05;;;;;;;23.08;54.88;95668.97;6211274;23;20070;-84
2022/06/16 08:37:49;;;;;;;22.70;17.90;;;;;;;22.45;52.48;95566.97;6207911;23;20078;-83
2022/06/16 08:40:16;;;;;;;22.33;17.42;;;;;;;23.29;51.27;95660.69;6211684;23;20005;-83
2022/06/16 08:42:50;;;;;;;24.85;18.17;;;;;;;23.46;50.76;95665.06;6207726;23;20096;-83
2022/06/16 08:45:36;;;;;;;22.00;18.00;;;;;;;23.32;54.26;95661.94;6207649;23;20444;-84
2022/06/16 08:48:25;;;;;;;25.52;17.27;;;;;;;23.44;52.22;95657.28;6211888;23;20498;-83
2022/06/16 08:51:12;;;;;;;26.80;19.95;;;;;;;23.41;52.73;95655.28;6209277;23;20009;-83
2022/06/16 08:53:54;;;;;;;22.75;17.05;;;;;;;23.22;50.27;95657.00;6208636;23;20103;-84
2022/06/16 08:56:46;;;;;;;28.27;19.95;;;;;;;23.50;49.65;95641.59;6211274;23;20398;-83
2022/06/16 08:59:24;;;;;;;20.33;17.45;;;;;;;23.40;50.38;95650.19;6208124;23;20023;-83
2022/06/16 09:02:04;;;;;;;25.90;18.63;;;;;;;22.96;52.81;95577.03;6211250;23;20454;-83
2022/06/16 09:04:41;;;;;;;29.00;19.15;;;;;;;23.23;52.17;95575.50;6208528;23;20012;-82
2022/06/16 09:07:21;;;;;;;26.20;18.50;;;;;;;23.46;49.78;95602.81;6211111;23;20056;-82
2022/06/16 09:10:14;;;;;;;23.48;18.98;;;;;;;23.73;48.45;95620.97;6210355;23;20435;-83
2022/06/16 09:12:59;;;;;;;21.13;17.65;;;;;;;23.89;48.40;95641.88;6208154;23;20039;-83
2022/06/16 09:15:40;;;;;;;25.15;16.55;;;;;;;23.94;49.03;95644.34;6207224;23;20012;-82
2022/06/16 09:18:20;;;;;;;20.47;16.70;;;;;;;24.16;49.39;95641.06;6206195;23;20434;-83
2022/06/16 09:20:53;;;;;;;23.05;15.48;;;;;;;23.78;49.52;95585.53;6205746;23;20470;-82
2022/06/16 09:23:48;;;;;;;20.77;15.98;;;;;;;24.29;48.84;95639.06;6230517;23;20039;-82
2022/06/16 09:26:29;;;;;;;23.42;16.92;;;;;;;24.40;49.51;95640.13;6203794;23;20071;-82
2022/06/16 09:29:04;;;;;;;19.23;16.10;;;;;;;24.53;48.05;95625.34;6207450;23;20015;-83
2022/06/16 09:31:57;;;;;;;20.20;13.98;;;;;;;24.34;45.29;95623.31;6207367;23;20424;-82
2022/06/16 09:34:31;;;;;;;17.88;13.65;;;;;;;24.16;46.01;95595.78;6208461;23;20092;-82
2022/06/16 09:37:28;;;;;;;17.50;14.18;;;;;;;24.16;46.91;95601.19;6206077;23;20020;-82
2022/06/16 09:40:11;;;;;;;18.85;12.70;;;;;;;24.08;44.26;95526.28;6184988;23;20035;-83
2022/06/16 09:42:42;;;;;;;17.10;12.15;;;;;;;24.80;45.23;95618.19;6206725;23;20071;-82
2022/06/16 09:45:26;;;;;;;14.50;12.02;;;;;;;24.62;42.98;95555.44;6207960;23;20016;-83
2022/06/16 09:48:31;;;;;;;16.00;11.80;;;;;;;25.89;41.67;95603.44;6208828;23;20088;-82
2022/06/16 09:50:59;;;;;;;13.23;11.77;;;;;;;26.57;42.65;95604.59;6209701;23;20048;-82
2022/06/16 09:53:52;;;;;;;21.63;13.45;;;;;;;26.77;41.14;95562.53;6208905;23;20337;-83
2022/06/16 09:56:29;;;;;;;15.98;11.88;;;;;;;27.77;39.63;95606.22;6208135;23;20471;-84
2022/06/16 09:59:28;;;;;;;16.60;11.95;;;;;;;28.32;37.99;95598.22;6211803;23;20015;-84
2022/06/16 10:02:05;;;;;;;12.75;10.07;;;;;;;28.06;37.21;95587.44;6176707;23;20015;-84
2022/06/16 10:04:31;;;;;;;14.68;10.70;;;;;;;27.84;35.04;95475.50;6209643;23;20011;-84
2022/06/16 10:07:15;;;;;;;12.98;11.35;;;;;;;29.05;34.24;95607.34;6210341;23;20504;-84
2022/06/16 10:09:43;;;;;;;16.00;12.63;;;;;;;28.16;34.32;95600.41;6209080;23;20016;-84
2022/06/16 10:12:10;;;;;;;15.93;13.15;;;;;;;28.18;35.07;95593.41;6208249;23;20012;-84
2022/06/16 10:14:54;;;;;;;14.98;12.18;;;;;;;28.45;35.35;95596.00;6210353;23;20087;-84
2022/06/16 10:17:22;;;;;;;19.77;12.77;;;;;;;28.99;36.10;95593.25;6210618;23;20066;-84
2022/06/16 10:19:47;;;;;;;19.50;13.23;;;;;;;29.64;34.32;95595.16;6213551;23;20027;-84
2022/06/16 10:22:16;;;;;;;18.20;12.00;;;;;;;29.76;33.27;95563.91;6214171;23;20013;-84
2022/06/16 10:24:51;;;;;;;13.27;11.55;;;;;;;30.17;32.56;95586.28;6213353;23;20019;-84
2022/06/16 10:27:19;;;;;;;17.50;12.77;;;;;;;29.88;33.39;95588.19;6210331;23;20016;-84
2022/06/16 10:29:55;;;;;;;17.98;12.95;;;;;;;29.91;33.57;95571.78;6211591;23;20016;-84
2022/06/16 10:32:36;;;;;;;16.52;12.32;;;;;;;29.93;31.92;95525.72;6210361;23;20012;-84
2022/06/16 10:35:03;;;;;;;;;;;;;;;30.64;31.65;95583.22;6212788;23;20092;-83
2022/06/16 10:37:30;;;;;;;15.25;10.68;;;;;;;30.33;31.23;95573.03;6210887;23;19915;-83
2022/06/16 10:40:05;;;;;;;14.10;11.32;;;;;;;30.75;30.20;95572.22;6210497;23;20012;-83
2022/06/16 10:42:40;;;;;;;17.38;11.52;;;;;;;30.79;31.70;95507.31;6209198;23;20012;-83
2022/06/16 10:45:11;;;;;;;18.65;11.93;;;;;;;31.26;32.22;95544.34;6211540;23;20362;-84
2022/06/16 10:47:45;;;;;;;23.23;12.85;;;;;;;31.70;31.71;95567.66;6210988;23;20090;-83
2022/06/16 10:50:20;;;;;;;14.07;11.45;;;;;;;31.35;30.22;95522.00;6211073;23;20019;-83
2022/06/16 10:53:04;;;;;;;18.13;11.07;;;;;;;31.36;29.82;95531.75;6211403;23;20348;-83
2022/06/16 10:55:42;;;;;;;18.15;12.18;;;;;;;31.27;29.99;95499.34;6206624;23;20336;-83
2022/06/16 10:58:20;;;;;;;17.00;11.68;;;;;;;31.58;30.16;95474.88;6209491;23;20068;-84
2022/06/16 11:01:00;;;;;;;16.88;11.00;;;;;;;31.63;28.83;95546.53;6210672;23;20012;-83
2022/06/16 11:03:26;;;;;;;13.23;10.52;;;;;;;31.43;29.10;95551.69;6207554;23;20009;-84
2022/06/16 11:05:59;;;;;;;13.98;10.38;;;;;;;31.85;28.37;95558.16;6211269;23;20088;-83
2022/06/16 11:08:47;;;;;;;14.50;10.05;;;;;;;30.35;29.20;95477.66;6212680;23;20015;-83
2022/06/16 11:11:17;;;;;;;14.60;10.70;;;;;;;30.14;30.10;95499.53;6208467;23;20067;-83
2022/06/16 11:13:52;;;;;;;11.70;10.32;;;;;;;31.13;29.52;95556.16;6235091;23;20091;-83
2022/06/16 11:16:30;;;;;;;12.43;10.88;;;;;;;31.47;28.69;95540.72;6209054;23;20522;-84
2022/06/16 11:19:00;;;;;;;16.77;12.13;;;;;;;31.33;29.24;95558.03;6209187;23;20019;-83
2022/06/16 11:21:29;;;;;;;16.00;10.27;;;;;;;31.05;28.00;95489.59;6210462;23;20470;-82
2022/06/16 11:23:58;;;;;;;11.85;10.23;;;;;;;31.81;28.17;95552.69;6208960;23;20399;-82
2022/06/16 11:26:31;;;;;;;15.15;10.57;;;;;;;32.01;29.46;95520.06;6207247;23;20023;-82
2022/06/16 11:29:19;;;;;;;13.82;10.93;;;;;;;32.61;29.63;95537.22;6211074;23;20008;-82
2022/06/16 11:32:14;;;;;;;17.75;10.93;;;;;;;32.51;28.53;95459.25;6208672;23;20023;-82
2022/06/16 11:34:42;;;;;;;11.77;9.95;;;;;;;32.09;29.27;95491.38;6208610;23;20008;-82
2022/06/16 11:37:07;;;;;;;21.55;11.48;;;;;;;33.03;28.44;95536.81;6210135;23;20012;-83
2022/06/16 11:39:51;;;;;;;14.80;11.25;;;;;;;32.92;26.20;95531.44;6210983;23;20059;-82
2022/06/16 11:42:19;;;;;;;17.38;11.15;;;;;;;32.93;26.99;95530.25;6207853;23;20012;-83
2022/06/16 11:45:10;;;;;;;17.05;11.48;;;;;;;32.97;26.44;95524.69;6208293;23;20091;-83
2022/06/16 11:47:54;;;;;;;14.63;10.90;;;;;;;33.03;26.20;95525.84;6212811;23;20423;-83
2022/06/16 11:51:01;;;;;;;15.90;10.45;;;;;;;32.49;26.27;95465.19;6212312;23;20311;-83
2022/06/16 11:54:06;;;;;;;13.32;10.45;;;;;;;32.32;26.88;95532.00;6159020;23;20042;-84
2022/06/16 11:56:59;;;;;;;13.85;11.40;;;;;;;32.46;27.10;95531.88;6208920;23;20051;-83
2022/06/16 12:00:02;;;;;;;14.93;11.30;;;;;;;32.07;28.74;95526.66;6210702;23;20051;-83